sensor_id;sensor_type;location;lat;lon;timestamp;P1;durP1;ratioP1;P2;durP2;ratioP2
18702;SDS011;9481;48.796;9.210;2022-08-19T00:01:48;11.43;;;10.20;;
18702;SDS011;9481;48.796;9.210;2022-08-19T00:04:17;11.40;;;10.20;;
18702;SDS011;9481;48.796;9.210;2022-08-19T00:06:49;10.80;;;9.67;;
18702;SDS011;9481;48.796;9.210;2022-08-19T00:09:17;12.33;;;10.77;;
18702;SDS011;9481;48.796;9.210;2022-08-19T00:11:45;12.27;;;10.47;;
18702;SDS011;9481;48.796;9.210;2022-08-19T00:14:12;12.40;;;11.10;;
18702;SDS011;9481;48.796;9.210;2022-08-19T00:16:40;11.13;;;10.03;;
18702;SDS011;9481;48.796;9.210;2022-08-19T00:19:08;12.27;;;10.77;;
18702;SDS011;9481;48.796;9.210;2022-08-19T00:21:35;11.33;;;10.20;;
18702;SDS011;9481;48.796;9.210;2022-08-19T00:24:04;13.63;;;10.90;;
18702;SDS011;9481;48.796;9.210;2022-08-19T00:26:35;12.27;;;10.73;;
18702;SDS011;9481;48.796;9.210;2022-08-19T00:29:02;11.57;;;10.33;;
18702;SDS011;9481;48.796;9.210;2022-08-19T00:31:30;12.07;;;10.67;;
18702;SDS011;9481;48.796;9.210;2022-08-19T00:33:56;11.27;;;9.87;;
18702;SDS011;9481;48.796;9.210;2022-08-19T00:36:22;11.70;;;10.50;;
18702;SDS011;9481;48.796;9.210;2022-08-19T00:38:48;11.63;;;10.43;;
18702;SDS011;9481;48.796;9.210;2022-08-19T00:41:17;12.07;;;9.63;;
18702;SDS011;9481;48.796;9.210;2022-08-19T00:46:28;11.60;;;10.40;;
18702;SDS011;9481;48.796;9.210;2022-08-19T00:48:55;12.60;;;10.50;;
18702;SDS011;9481;48.796;9.210;2022-08-19T00:51:22;11.70;;;10.50;;
18702;SDS011;9481;48.796;9.210;2022-08-19T00:53:52;11.33;;;10.13;;
18702;SDS011;9481;48.796;9.210;2022-08-19T00:56:21;14.53;;;11.13;;
18702;SDS011;9481;48.796;9.210;2022-08-19T00:58:48;11.87;;;10.67;;
18702;SDS011;9481;48.796;9.210;2022-08-19T01:01:14;12.60;;;10.87;;
18702;SDS011;9481;48.796;9.210;2022-08-19T01:03:40;11.70;;;10.30;;
18702;SDS011;9481;48.796;9.210;2022-08-19T01:06:06;11.87;;;10.63;;
18702;SDS011;9481;48.796;9.210;2022-08-19T01:08:32;12.87;;;11.20;;
18702;SDS011;9481;48.796;9.210;2022-08-19T01:10:59;13.57;;;10.60;;
18702;SDS011;9481;48.796;9.210;2022-08-19T01:13:27;12.13;;;10.43;;
18702;SDS011;9481;48.796;9.210;2022-08-19T01:15:59;14.63;;;10.73;;
18702;SDS011;9481;48.796;9.210;2022-08-19T01:18:32;11.67;;;10.47;;
18702;SDS011;9481;48.796;9.210;2022-08-19T01:21:06;12.67;;;11.00;;
18702;SDS011;9481;48.796;9.210;2022-08-19T01:23:56;11.93;;;10.73;;
18702;SDS011;9481;48.796;9.210;2022-08-19T01:26:22;12.40;;;10.87;;
18702;SDS011;9481;48.796;9.210;2022-08-19T01:28:51;13.33;;;10.77;;
18702;SDS011;9481;48.796;9.210;2022-08-19T01:31:22;12.43;;;10.97;;
18702;SDS011;9481;48.796;9.210;2022-08-19T01:33:54;12.27;;;10.97;;
18702;SDS011;9481;48.796;9.210;2022-08-19T01:38:58;12.70;;;11.03;;
18702;SDS011;9481;48.796;9.210;2022-08-19T01:41:26;12.77;;;11.20;;
18702;SDS011;9481;48.796;9.210;2022-08-19T01:43:52;14.63;;;11.07;;
18702;SDS011;9481;48.796;9.210;2022-08-19T01:46:19;12.30;;;10.70;;
18702;SDS011;9481;48.796;9.210;2022-08-19T01:48:45;11.93;;;10.70;;
18702;SDS011;9481;48.796;9.210;2022-08-19T01:51:12;12.07;;;10.87;;
18702;SDS011;9481;48.796;9.210;2022-08-19T01:53:39;12.27;;;10.60;;
18702;SDS011;9481;48.796;9.210;2022-08-19T01:56:06;12.73;;;11.03;;
18702;SDS011;9481;48.796;9.210;2022-08-19T01:58:40;13.23;;;11.50;;
18702;SDS011;9481;48.796;9.210;2022-08-19T02:01:15;12.27;;;10.97;;
18702;SDS011;9481;48.796;9.210;2022-08-19T02:03:42;13.63;;;11.60;;
18702;SDS011;9481;48.796;9.210;2022-08-19T02:06:08;13.17;;;11.00;;
18702;SDS011;9481;48.796;9.210;2022-08-19T02:08:35;12.40;;;10.97;;
18702;SDS011;9481;48.796;9.210;2022-08-19T02:11:04;13.27;;;11.87;;
18702;SDS011;9481;48.796;9.210;2022-08-19T02:13:32;12.87;;;11.50;;
18702;SDS011;9481;48.796;9.210;2022-08-19T02:15:59;13.10;;;11.63;;
18702;SDS011;9481;48.796;9.210;2022-08-19T02:18:25;13.00;;;11.70;;
18702;SDS011;9481;48.796;9.210;2022-08-19T02:20:51;12.80;;;11.17;;
18702;SDS011;9481;48.796;9.210;2022-08-19T02:23:17;13.33;;;11.93;;
18702;SDS011;9481;48.796;9.210;2022-08-19T02:25:44;13.10;;;11.37;;
18702;SDS011;9481;48.796;9.210;2022-08-19T02:28:11;13.23;;;11.63;;
18702;SDS011;9481;48.796;9.210;2022-08-19T02:30:38;13.53;;;11.97;;
18702;SDS011;9481;48.796;9.210;2022-08-19T02:33:06;14.23;;;11.40;;
18702;SDS011;9481;48.796;9.210;2022-08-19T02:35:31;12.27;;;10.97;;
18702;SDS011;9481;48.796;9.210;2022-08-19T02:37:57;14.17;;;12.60;;
18702;SDS011;9481;48.796;9.210;2022-08-19T02:40:47;14.17;;;12.37;;
18702;SDS011;9481;48.796;9.210;2022-08-19T02:43:18;14.47;;;12.97;;
18702;SDS011;9481;48.796;9.210;2022-08-19T02:45:45;14.50;;;12.73;;
18702;SDS011;9481;48.796;9.210;2022-08-19T02:48:13;14.37;;;12.57;;
18702;SDS011;9481;48.796;9.210;2022-08-19T02:50:42;14.43;;;11.93;;
18702;SDS011;9481;48.796;9.210;2022-08-19T02:53:08;15.67;;;12.67;;
18702;SDS011;9481;48.796;9.210;2022-08-19T02:55:35;14.93;;;12.80;;
18702;SDS011;9481;48.796;9.210;2022-08-19T02:58:01;15.47;;;13.23;;
18702;SDS011;9481;48.796;9.210;2022-08-19T03:00:27;14.87;;;12.87;;
18702;SDS011;9481;48.796;9.210;2022-08-19T03:02:53;17.87;;;13.70;;
18702;SDS011;9481;48.796;9.210;2022-08-19T03:05:18;15.37;;;13.50;;
18702;SDS011;9481;48.796;9.210;2022-08-19T03:07:44;16.90;;;13.77;;
18702;SDS011;9481;48.796;9.210;2022-08-19T03:10:12;16.37;;;12.83;;
18702;SDS011;9481;48.796;9.210;2022-08-19T03:12:38;16.13;;;13.60;;
18702;SDS011;9481;48.796;9.210;2022-08-19T03:15:05;17.10;;;13.53;;
18702;SDS011;9481;48.796;9.210;2022-08-19T03:17:33;17.93;;;14.30;;
18702;SDS011;9481;48.796;9.210;2022-08-19T03:20:00;17.60;;;13.17;;
18702;SDS011;9481;48.796;9.210;2022-08-19T03:22:27;17.13;;;15.03;;
18702;SDS011;9481;48.796;9.210;2022-08-19T03:24:54;17.60;;;13.97;;
18702;SDS011;9481;48.796;9.210;2022-08-19T03:27:21;16.80;;;14.40;;
18702;SDS011;9481;48.796;9.210;2022-08-19T03:29:47;15.53;;;13.73;;
18702;SDS011;9481;48.796;9.210;2022-08-19T03:32:13;17.77;;;14.83;;
18702;SDS011;9481;48.796;9.210;2022-08-19T03:34:38;17.73;;;14.10;;
18702;SDS011;9481;48.796;9.210;2022-08-19T03:37:05;17.07;;;14.47;;
18702;SDS011;9481;48.796;9.210;2022-08-19T03:39:35;17.63;;;15.03;;
18702;SDS011;9481;48.796;9.210;2022-08-19T03:46:03;16.90;;;14.47;;
18702;SDS011;9481;48.796;9.210;2022-08-19T03:48:33;18.17;;;14.80;;
18702;SDS011;9481;48.796;9.210;2022-08-19T03:51:01;19.43;;;15.23;;
18702;SDS011;9481;48.796;9.210;2022-08-19T03:53:27;17.97;;;14.27;;
18702;SDS011;9481;48.796;9.210;2022-08-19T03:55:55;20.77;;;14.87;;
18702;SDS011;9481;48.796;9.210;2022-08-19T03:58:24;19.93;;;15.43;;
18702;SDS011;9481;48.796;9.210;2022-08-19T04:00:53;17.90;;;15.57;;
18702;SDS011;9481;48.796;9.210;2022-08-19T04:03:23;17.43;;;14.30;;
18702;SDS011;9481;48.796;9.210;2022-08-19T04:05:51;17.13;;;15.20;;
18702;SDS011;9481;48.796;9.210;2022-08-19T04:29:45;18.07;;;15.47;;
18702;SDS011;9481;48.796;9.210;2022-08-19T04:32:12;20.43;;;16.33;;
18702;SDS011;9481;48.796;9.210;2022-08-19T04:34:40;21.80;;;16.70;;
18702;SDS011;9481;48.796;9.210;2022-08-19T04:37:07;20.33;;;15.93;;
18702;SDS011;9481;48.796;9.210;2022-08-19T04:39:38;18.70;;;15.73;;
18702;SDS011;9481;48.796;9.210;2022-08-19T04:42:23;20.50;;;15.60;;
18702;SDS011;9481;48.796;9.210;2022-08-19T04:45:04;20.67;;;15.70;;
18702;SDS011;9481;48.796;9.210;2022-08-19T04:47:40;18.73;;;15.73;;
18702;SDS011;9481;48.796;9.210;2022-08-19T04:50:08;20.40;;;15.97;;
18702;SDS011;9481;48.796;9.210;2022-08-19T04:52:36;17.50;;;15.23;;
18702;SDS011;9481;48.796;9.210;2022-08-19T04:55:07;19.53;;;16.33;;
18702;SDS011;9481;48.796;9.210;2022-08-19T04:57:35;18.77;;;16.33;;
18702;SDS011;9481;48.796;9.210;2022-08-19T05:00:06;20.13;;;16.47;;
18702;SDS011;9481;48.796;9.210;2022-08-19T05:02:36;21.87;;;16.80;;
18702;SDS011;9481;48.796;9.210;2022-08-19T05:05:03;19.50;;;15.97;;
18702;SDS011;9481;48.796;9.210;2022-08-19T05:07:31;19.67;;;16.27;;
18702;SDS011;9481;48.796;9.210;2022-08-19T05:09:57;19.93;;;16.70;;
18702;SDS011;9481;48.796;9.210;2022-08-19T05:12:23;19.87;;;15.97;;
18702;SDS011;9481;48.796;9.210;2022-08-19T05:14:49;18.90;;;15.50;;
18702;SDS011;9481;48.796;9.210;2022-08-19T05:17:16;18.67;;;15.90;;
18702;SDS011;9481;48.796;9.210;2022-08-19T05:19:42;19.67;;;16.40;;
18702;SDS011;9481;48.796;9.210;2022-08-19T05:22:34;19.90;;;16.53;;
18702;SDS011;9481;48.796;9.210;2022-08-19T05:25:04;20.97;;;16.33;;
18702;SDS011;9481;48.796;9.210;2022-08-19T05:27:34;17.93;;;15.50;;
18702;SDS011;9481;48.796;9.210;2022-08-19T05:30:00;19.10;;;16.13;;
18702;SDS011;9481;48.796;9.210;2022-08-19T05:32:26;19.40;;;16.40;;
18702;SDS011;9481;48.796;9.210;2022-08-19T05:34:52;20.57;;;16.17;;
18702;SDS011;9481;48.796;9.210;2022-08-19T05:37:18;19.07;;;15.97;;
18702;SDS011;9481;48.796;9.210;2022-08-19T05:39:44;19.70;;;15.13;;
18702;SDS011;9481;48.796;9.210;2022-08-19T05:42:10;19.33;;;15.87;;
18702;SDS011;9481;48.796;9.210;2022-08-19T05:44:38;19.13;;;15.70;;
18702;SDS011;9481;48.796;9.210;2022-08-19T05:47:09;18.57;;;14.80;;
18702;SDS011;9481;48.796;9.210;2022-08-19T05:49:38;18.17;;;15.70;;
18702;SDS011;9481;48.796;9.210;2022-08-19T05:52:05;20.77;;;16.30;;
18702;SDS011;9481;48.796;9.210;2022-08-19T05:54:38;17.47;;;15.20;;
18702;SDS011;9481;48.796;9.210;2022-08-19T05:57:06;20.27;;;15.67;;
18702;SDS011;9481;48.796;9.210;2022-08-19T05:59:33;27.37;;;16.07;;
18702;SDS011;9481;48.796;9.210;2022-08-19T06:02:00;20.57;;;15.93;;
18702;SDS011;9481;48.796;9.210;2022-08-19T06:04:28;19.13;;;16.47;;
18702;SDS011;9481;48.796;9.210;2022-08-19T06:06:54;17.40;;;15.57;;
18702;SDS011;9481;48.796;9.210;2022-08-19T06:09:21;18.83;;;15.57;;
18702;SDS011;9481;48.796;9.210;2022-08-19T06:11:52;18.43;;;14.87;;
18702;SDS011;9481;48.796;9.210;2022-08-19T06:14:29;18.50;;;15.77;;
18702;SDS011;9481;48.796;9.210;2022-08-19T06:16:57;20.33;;;16.37;;
18702;SDS011;9481;48.796;9.210;2022-08-19T06:19:26;18.10;;;16.17;;
18702;SDS011;9481;48.796;9.210;2022-08-19T06:21:57;20.33;;;16.07;;
18702;SDS011;9481;48.796;9.210;2022-08-19T06:24:26;20.87;;;16.10;;
18702;SDS011;9481;48.796;9.210;2022-08-19T06:26:54;22.47;;;15.93;;
18702;SDS011;9481;48.796;9.210;2022-08-19T06:29:23;20.07;;;15.70;;
18702;SDS011;9481;48.796;9.210;2022-08-19T06:31:52;19.07;;;15.93;;
18702;SDS011;9481;48.796;9.210;2022-08-19T06:34:21;19.80;;;16.40;;
18702;SDS011;9481;48.796;9.210;2022-08-19T06:36:48;18.73;;;15.67;;
18702;SDS011;9481;48.796;9.210;2022-08-19T06:39:18;22.50;;;16.90;;
18702;SDS011;9481;48.796;9.210;2022-08-19T06:41:50;19.63;;;15.13;;
18702;SDS011;9481;48.796;9.210;2022-08-19T06:44:19;19.27;;;16.73;;
18702;SDS011;9481;48.796;9.210;2022-08-19T06:46:47;19.17;;;16.47;;
18702;SDS011;9481;48.796;9.210;2022-08-19T06:49:14;19.20;;;16.40;;
18702;SDS011;9481;48.796;9.210;2022-08-19T06:51:42;20.17;;;16.90;;
18702;SDS011;9481;48.796;9.210;2022-08-19T06:54:12;20.67;;;16.53;;
18702;SDS011;9481;48.796;9.210;2022-08-19T06:56:39;18.70;;;16.33;;
18702;SDS011;9481;48.796;9.210;2022-08-19T06:59:09;20.07;;;17.03;;
18702;SDS011;9481;48.796;9.210;2022-08-19T07:01:40;19.10;;;16.67;;
18702;SDS011;9481;48.796;9.210;2022-08-19T07:04:14;19.13;;;15.80;;
18702;SDS011;9481;48.796;9.210;2022-08-19T07:06:49;21.37;;;16.60;;
18702;SDS011;9481;48.796;9.210;2022-08-19T07:09:25;19.83;;;16.10;;
18702;SDS011;9481;48.796;9.210;2022-08-19T07:11:52;19.87;;;16.47;;
18702;SDS011;9481;48.796;9.210;2022-08-19T07:14:21;17.80;;;15.30;;
18702;SDS011;9481;48.796;9.210;2022-08-19T07:16:52;18.00;;;15.23;;
18702;SDS011;9481;48.796;9.210;2022-08-19T07:19:21;23.40;;;16.40;;
18702;SDS011;9481;48.796;9.210;2022-08-19T07:21:50;20.83;;;17.23;;
18702;SDS011;9481;48.796;9.210;2022-08-19T07:24:19;19.03;;;16.00;;
18702;SDS011;9481;48.796;9.210;2022-08-19T07:26:52;17.77;;;15.80;;
18702;SDS011;9481;48.796;9.210;2022-08-19T07:29:22;19.97;;;15.77;;
18702;SDS011;9481;48.796;9.210;2022-08-19T07:31:51;19.77;;;16.67;;
18702;SDS011;9481;48.796;9.210;2022-08-19T07:34:20;19.37;;;16.63;;
18702;SDS011;9481;48.796;9.210;2022-08-19T07:36:48;17.33;;;15.00;;
18702;SDS011;9481;48.796;9.210;2022-08-19T07:39:20;18.13;;;15.53;;
18702;SDS011;9481;48.796;9.210;2022-08-19T07:41:49;16.77;;;14.33;;
18702;SDS011;9481;48.796;9.210;2022-08-19T07:44:17;19.97;;;15.60;;
18702;SDS011;9481;48.796;9.210;2022-08-19T07:46:46;17.50;;;15.23;;
18702;SDS011;9481;48.796;9.210;2022-08-19T07:49:16;16.37;;;14.67;;
18702;SDS011;9481;48.796;9.210;2022-08-19T07:51:48;18.03;;;15.47;;
18702;SDS011;9481;48.796;9.210;2022-08-19T07:54:24;17.23;;;14.93;;
18702;SDS011;9481;48.796;9.210;2022-08-19T07:56:52;19.03;;;15.43;;
18702;SDS011;9481;48.796;9.210;2022-08-19T07:59:18;21.00;;;16.33;;
18702;SDS011;9481;48.796;9.210;2022-08-19T08:01:45;17.00;;;15.07;;
18702;SDS011;9481;48.796;9.210;2022-08-19T08:04:12;17.97;;;15.63;;
18702;SDS011;9481;48.796;9.210;2022-08-19T08:06:57;17.80;;;15.33;;
18702;SDS011;9481;48.796;9.210;2022-08-19T08:09:43;16.93;;;14.90;;
18702;SDS011;9481;48.796;9.210;2022-08-19T08:12:15;16.57;;;14.73;;
18702;SDS011;9481;48.796;9.210;2022-08-19T08:14:48;19.40;;;16.33;;
18702;SDS011;9481;48.796;9.210;2022-08-19T08:17:18;16.93;;;14.70;;
18702;SDS011;9481;48.796;9.210;2022-08-19T08:19:48;19.67;;;14.83;;
18702;SDS011;9481;48.796;9.210;2022-08-19T08:22:16;18.10;;;14.57;;
18702;SDS011;9481;48.796;9.210;2022-08-19T08:25:23;19.03;;;15.10;;
18702;SDS011;9481;48.796;9.210;2022-08-19T08:27:49;20.23;;;16.27;;
18702;SDS011;9481;48.796;9.210;2022-08-19T08:30:17;19.23;;;16.17;;
18702;SDS011;9481;48.796;9.210;2022-08-19T08:32:45;21.30;;;16.40;;
18702;SDS011;9481;48.796;9.210;2022-08-19T08:35:13;18.73;;;15.87;;
18702;SDS011;9481;48.796;9.210;2022-08-19T08:37:43;18.47;;;15.33;;
18702;SDS011;9481;48.796;9.210;2022-08-19T08:40:17;18.43;;;15.17;;
18702;SDS011;9481;48.796;9.210;2022-08-19T08:45:38;20.10;;;15.17;;
18702;SDS011;9481;48.796;9.210;2022-08-19T08:48:18;17.13;;;14.53;;
18702;SDS011;9481;48.796;9.210;2022-08-19T08:50:59;20.20;;;15.63;;
18702;SDS011;9481;48.796;9.210;2022-08-19T08:53:35;17.30;;;14.47;;
18702;SDS011;9481;48.796;9.210;2022-08-19T08:56:04;19.90;;;16.40;;
18702;SDS011;9481;48.796;9.210;2022-08-19T08:58:49;17.63;;;15.40;;
18702;SDS011;9481;48.796;9.210;2022-08-19T09:01:24;17.63;;;14.53;;
18702;SDS011;9481;48.796;9.210;2022-08-19T09:03:52;17.93;;;14.73;;
18702;SDS011;9481;48.796;9.210;2022-08-19T09:06:23;18.10;;;14.77;;
18702;SDS011;9481;48.796;9.210;2022-08-19T09:09:41;15.97;;;13.67;;
18702;SDS011;9481;48.796;9.210;2022-08-19T09:12:30;19.97;;;15.80;;
18702;SDS011;9481;48.796;9.210;2022-08-19T09:15:18;16.03;;;13.97;;
18702;SDS011;9481;48.796;9.210;2022-08-19T09:17:53;16.87;;;15.07;;
18702;SDS011;9481;48.796;9.210;2022-08-19T09:20:20;17.33;;;14.70;;
18702;SDS011;9481;48.796;9.210;2022-08-19T09:22:48;17.03;;;14.67;;
18702;SDS011;9481;48.796;9.210;2022-08-19T09:25:16;16.87;;;14.47;;
18702;SDS011;9481;48.796;9.210;2022-08-19T09:27:47;16.33;;;14.10;;
18702;SDS011;9481;48.796;9.210;2022-08-19T09:30:16;16.33;;;14.30;;
18702;SDS011;9481;48.796;9.210;2022-08-19T09:32:46;17.60;;;14.60;;
18702;SDS011;9481;48.796;9.210;2022-08-19T09:35:13;17.80;;;13.83;;
18702;SDS011;9481;48.796;9.210;2022-08-19T09:37:40;16.17;;;14.27;;
18702;SDS011;9481;48.796;9.210;2022-08-19T09:40:07;20.17;;;14.70;;
18702;SDS011;9481;48.796;9.210;2022-08-19T09:42:34;17.03;;;14.30;;
18702;SDS011;9481;48.796;9.210;2022-08-19T09:45:00;15.47;;;13.87;;
18702;SDS011;9481;48.796;9.210;2022-08-19T09:47:26;18.60;;;14.40;;
18702;SDS011;9481;48.796;9.210;2022-08-19T09:49:51;16.83;;;14.30;;
18702;SDS011;9481;48.796;9.210;2022-08-19T09:52:17;19.90;;;14.27;;
18702;SDS011;9481;48.796;9.210;2022-08-19T09:54:43;17.27;;;13.73;;
18702;SDS011;9481;48.796;9.210;2022-08-19T09:57:08;18.80;;;13.57;;
18702;SDS011;9481;48.796;9.210;2022-08-19T09:59:34;18.90;;;13.60;;
18702;SDS011;9481;48.796;9.210;2022-08-19T10:02:00;14.50;;;12.90;;
18702;SDS011;9481;48.796;9.210;2022-08-19T10:04:26;16.33;;;13.53;;
18702;SDS011;9481;48.796;9.210;2022-08-19T10:07:12;16.43;;;13.17;;
18702;SDS011;9481;48.796;9.210;2022-08-19T10:09:38;17.23;;;14.10;;
18702;SDS011;9481;48.796;9.210;2022-08-19T10:12:05;15.63;;;12.90;;
18702;SDS011;9481;48.796;9.210;2022-08-19T10:14:32;16.57;;;13.70;;
18702;SDS011;9481;48.796;9.210;2022-08-19T10:17:00;16.83;;;12.43;;
18702;SDS011;9481;48.796;9.210;2022-08-19T10:19:27;14.13;;;12.23;;
18702;SDS011;9481;48.796;9.210;2022-08-19T10:21:55;14.97;;;12.73;;
18702;SDS011;9481;48.796;9.210;2022-08-19T10:24:20;15.17;;;13.50;;
18702;SDS011;9481;48.796;9.210;2022-08-19T10:26:49;15.00;;;11.77;;
18702;SDS011;9481;48.796;9.210;2022-08-19T10:29:14;14.40;;;12.40;;
18702;SDS011;9481;48.796;9.210;2022-08-19T10:31:41;15.13;;;12.70;;
18702;SDS011;9481;48.796;9.210;2022-08-19T10:34:07;15.90;;;11.97;;
18702;SDS011;9481;48.796;9.210;2022-08-19T10:36:34;14.47;;;11.57;;
18702;SDS011;9481;48.796;9.210;2022-08-19T10:39:06;13.83;;;11.77;;
18702;SDS011;9481;48.796;9.210;2022-08-19T10:41:35;14.00;;;12.40;;
18702;SDS011;9481;48.796;9.210;2022-08-19T10:44:04;12.97;;;11.63;;
18702;SDS011;9481;48.796;9.210;2022-08-19T10:46:35;16.67;;;11.90;;
18702;SDS011;9481;48.796;9.210;2022-08-19T10:49:06;15.47;;;11.80;;
18702;SDS011;9481;48.796;9.210;2022-08-19T10:51:34;15.90;;;11.90;;
18702;SDS011;9481;48.796;9.210;2022-08-19T10:54:19;14.40;;;11.37;;
18702;SDS011;9481;48.796;9.210;2022-08-19T10:56:45;13.20;;;11.50;;
18702;SDS011;9481;48.796;9.210;2022-08-19T10:59:17;12.63;;;11.33;;
18702;SDS011;9481;48.796;9.210;2022-08-19T11:01:45;12.23;;;11.03;;
18702;SDS011;9481;48.796;9.210;2022-08-19T11:04:12;12.10;;;10.90;;
18702;SDS011;9481;48.796;9.210;2022-08-19T11:06:42;21.00;;;10.80;;
18702;SDS011;9481;48.796;9.210;2022-08-19T11:09:12;12.10;;;10.47;;
18702;SDS011;9481;48.796;9.210;2022-08-19T11:11:40;12.37;;;10.57;;
18702;SDS011;9481;48.796;9.210;2022-08-19T11:14:08;11.37;;;10.17;;
18702;SDS011;9481;48.796;9.210;2022-08-19T11:16:36;13.43;;;10.57;;
18702;SDS011;9481;48.796;9.210;2022-08-19T11:19:06;11.37;;;9.93;;
18702;SDS011;9481;48.796;9.210;2022-08-19T11:21:35;10.87;;;9.70;;
18702;SDS011;9481;48.796;9.210;2022-08-19T11:24:25;12.17;;;9.23;;
18702;SDS011;9481;48.796;9.210;2022-08-19T11:26:52;14.50;;;8.97;;
18702;SDS011;9481;48.796;9.210;2022-08-19T11:29:25;12.77;;;9.77;;
18702;SDS011;9481;48.796;9.210;2022-08-19T11:31:52;12.63;;;9.27;;
18702;SDS011;9481;48.796;9.210;2022-08-19T11:34:21;9.63;;;8.57;;
18702;SDS011;9481;48.796;9.210;2022-08-19T11:36:50;12.27;;;9.50;;
18702;SDS011;9481;48.796;9.210;2022-08-19T11:39:18;11.53;;;9.40;;
18702;SDS011;9481;48.796;9.210;2022-08-19T11:41:45;11.17;;;9.20;;
18702;SDS011;9481;48.796;9.210;2022-08-19T11:44:12;10.77;;;9.40;;
18702;SDS011;9481;48.796;9.210;2022-08-19T11:46:39;12.03;;;10.30;;
18702;SDS011;9481;48.796;9.210;2022-08-19T11:49:11;13.77;;;11.03;;
18702;SDS011;9481;48.796;9.210;2022-08-19T11:51:43;13.53;;;11.50;;
18702;SDS011;9481;48.796;9.210;2022-08-19T11:54:10;12.90;;;11.33;;
18702;SDS011;9481;48.796;9.210;2022-08-19T11:56:39;13.37;;;11.93;;
18702;SDS011;9481;48.796;9.210;2022-08-19T11:59:05;14.67;;;12.33;;
18702;SDS011;9481;48.796;9.210;2022-08-19T12:01:32;15.07;;;11.77;;
18702;SDS011;9481;48.796;9.210;2022-08-19T12:03:59;13.40;;;12.10;;
18702;SDS011;9481;48.796;9.210;2022-08-19T12:06:28;15.50;;;12.00;;
18702;SDS011;9481;48.796;9.210;2022-08-19T12:08:59;15.93;;;12.80;;
18702;SDS011;9481;48.796;9.210;2022-08-19T12:11:30;13.43;;;10.87;;
18702;SDS011;9481;48.796;9.210;2022-08-19T12:13:56;13.37;;;11.97;;
18702;SDS011;9481;48.796;9.210;2022-08-19T12:16:24;14.60;;;12.10;;
18702;SDS011;9481;48.796;9.210;2022-08-19T12:18:53;15.83;;;12.83;;
18702;SDS011;9481;48.796;9.210;2022-08-19T12:21:20;17.97;;;15.27;;
18702;SDS011;9481;48.796;9.210;2022-08-19T12:23:53;16.53;;;14.20;;
18702;SDS011;9481;48.796;9.210;2022-08-19T12:26:22;22.37;;;16.03;;
18702;SDS011;9481;48.796;9.210;2022-08-19T12:28:50;17.37;;;15.03;;
18702;SDS011;9481;48.796;9.210;2022-08-19T12:31:16;19.63;;;15.90;;
18702;SDS011;9481;48.796;9.210;2022-08-19T12:33:42;20.53;;;15.60;;
18702;SDS011;9481;48.796;9.210;2022-08-19T12:36:09;20.00;;;16.03;;
18702;SDS011;9481;48.796;9.210;2022-08-19T12:38:37;18.27;;;16.37;;
18702;SDS011;9481;48.796;9.210;2022-08-19T12:41:05;19.03;;;15.83;;
18702;SDS011;9481;48.796;9.210;2022-08-19T12:43:33;19.70;;;16.33;;
18702;SDS011;9481;48.796;9.210;2022-08-19T12:46:00;22.33;;;18.27;;
18702;SDS011;9481;48.796;9.210;2022-08-19T12:48:27;18.13;;;16.17;;
18702;SDS011;9481;48.796;9.210;2022-08-19T12:50:54;19.47;;;16.93;;
18702;SDS011;9481;48.796;9.210;2022-08-19T12:53:19;18.67;;;16.50;;
18702;SDS011;9481;48.796;9.210;2022-08-19T12:55:45;20.70;;;16.77;;
18702;SDS011;9481;48.796;9.210;2022-08-19T12:58:11;18.87;;;16.83;;
18702;SDS011;9481;48.796;9.210;2022-08-19T13:00:37;18.70;;;16.70;;
18702;SDS011;9481;48.796;9.210;2022-08-19T13:03:04;18.47;;;16.43;;
18702;SDS011;9481;48.796;9.210;2022-08-19T13:05:31;19.70;;;16.97;;
18702;SDS011;9481;48.796;9.210;2022-08-19T13:07:59;18.53;;;16.30;;
18702;SDS011;9481;48.796;9.210;2022-08-19T13:10:27;20.57;;;17.70;;
18702;SDS011;9481;48.796;9.210;2022-08-19T13:12:59;18.20;;;16.10;;
18702;SDS011;9481;48.796;9.210;2022-08-19T13:15:32;20.23;;;17.40;;
18702;SDS011;9481;48.796;9.210;2022-08-19T13:18:00;20.67;;;17.40;;
18702;SDS011;9481;48.796;9.210;2022-08-19T13:20:27;21.50;;;18.50;;
18702;SDS011;9481;48.796;9.210;2022-08-19T13:22:53;20.97;;;17.60;;
18702;SDS011;9481;48.796;9.210;2022-08-19T13:25:19;19.77;;;17.67;;
18702;SDS011;9481;48.796;9.210;2022-08-19T13:27:49;20.80;;;17.40;;
18702;SDS011;9481;48.796;9.210;2022-08-19T13:30:16;24.53;;;18.83;;
18702;SDS011;9481;48.796;9.210;2022-08-19T13:33:02;20.43;;;17.20;;
18702;SDS011;9481;48.796;9.210;2022-08-19T13:35:45;20.10;;;17.93;;
18702;SDS011;9481;48.796;9.210;2022-08-19T13:38:21;19.47;;;16.93;;
18702;SDS011;9481;48.796;9.210;2022-08-19T13:40:47;21.03;;;17.53;;
18702;SDS011;9481;48.796;9.210;2022-08-19T13:43:16;20.13;;;16.87;;
18702;SDS011;9481;48.796;9.210;2022-08-19T13:45:44;18.90;;;16.90;;
18702;SDS011;9481;48.796;9.210;2022-08-19T13:48:10;20.67;;;17.73;;
18702;SDS011;9481;48.796;9.210;2022-08-19T13:50:40;23.13;;;18.00;;
18702;SDS011;9481;48.796;9.210;2022-08-19T13:53:09;19.73;;;16.90;;
18702;SDS011;9481;48.796;9.210;2022-08-19T13:55:39;22.00;;;18.23;;
18702;SDS011;9481;48.796;9.210;2022-08-19T13:58:07;19.53;;;16.73;;
18702;SDS011;9481;48.796;9.210;2022-08-19T14:00:38;19.60;;;16.53;;
18702;SDS011;9481;48.796;9.210;2022-08-19T14:03:10;21.83;;;19.13;;
18702;SDS011;9481;48.796;9.210;2022-08-19T14:05:37;17.73;;;15.83;;
18702;SDS011;9481;48.796;9.210;2022-08-19T14:08:03;19.80;;;16.87;;
18702;SDS011;9481;48.796;9.210;2022-08-19T14:10:29;19.00;;;16.93;;
18702;SDS011;9481;48.796;9.210;2022-08-19T14:12:57;20.77;;;17.80;;
18702;SDS011;9481;48.796;9.210;2022-08-19T14:15:26;19.80;;;17.17;;
18702;SDS011;9481;48.796;9.210;2022-08-19T14:17:53;18.93;;;16.57;;
18702;SDS011;9481;48.796;9.210;2022-08-19T14:20:19;21.13;;;17.43;;
18702;SDS011;9481;48.796;9.210;2022-08-19T14:22:46;21.37;;;18.80;;
18702;SDS011;9481;48.796;9.210;2022-08-19T14:25:14;22.83;;;18.60;;
18702;SDS011;9481;48.796;9.210;2022-08-19T14:27:45;24.47;;;18.80;;
18702;SDS011;9481;48.796;9.210;2022-08-19T14:30:12;19.47;;;17.00;;
18702;SDS011;9481;48.796;9.210;2022-08-19T14:32:42;19.73;;;16.63;;
18702;SDS011;9481;48.796;9.210;2022-08-19T14:35:11;23.67;;;18.53;;
18702;SDS011;9481;48.796;9.210;2022-08-19T14:37:40;18.47;;;16.57;;
18702;SDS011;9481;48.796;9.210;2022-08-19T14:40:07;19.93;;;17.17;;
18702;SDS011;9481;48.796;9.210;2022-08-19T14:42:34;20.27;;;17.57;;
18702;SDS011;9481;48.796;9.210;2022-08-19T14:45:00;19.17;;;17.17;;
18702;SDS011;9481;48.796;9.210;2022-08-19T14:47:26;19.47;;;16.87;;
18702;SDS011;9481;48.796;9.210;2022-08-19T14:49:52;20.83;;;16.77;;
18702;SDS011;9481;48.796;9.210;2022-08-19T14:52:19;19.57;;;17.30;;
18702;SDS011;9481;48.796;9.210;2022-08-19T14:54:45;19.63;;;17.53;;
18702;SDS011;9481;48.796;9.210;2022-08-19T14:57:13;20.80;;;17.33;;
18702;SDS011;9481;48.796;9.210;2022-08-19T14:59:41;19.13;;;16.77;;
18702;SDS011;9481;48.796;9.210;2022-08-19T15:02:08;18.93;;;16.07;;
18702;SDS011;9481;48.796;9.210;2022-08-19T15:04:35;19.33;;;16.30;;
18702;SDS011;9481;48.796;9.210;2022-08-19T15:07:02;17.87;;;16.00;;
18702;SDS011;9481;48.796;9.210;2022-08-19T15:09:29;18.73;;;16.23;;
18702;SDS011;9481;48.796;9.210;2022-08-19T15:11:58;17.53;;;15.67;;
18702;SDS011;9481;48.796;9.210;2022-08-19T15:14:25;18.83;;;16.17;;
18702;SDS011;9481;48.796;9.210;2022-08-19T15:16:52;18.40;;;16.37;;
18702;SDS011;9481;48.796;9.210;2022-08-19T15:19:19;18.93;;;16.90;;
18702;SDS011;9481;48.796;9.210;2022-08-19T15:21:45;18.00;;;16.10;;